Time;durP1;ratioP1;P1;durP2;ratioP2;P2;SDS_P1;SDS_P2;PMS_P1;PMS_P2;Temp;Humidity;BMP_temperature;BMP_pressure;BME280_temperature;BME280_humidity;BME280_pressure;Samples;Min_cycle;Max_cycle;Signal;HPM_P1;HPM_P2
2023/09/01 00:02:07;;;;;;;;;;;18.40;99.90;;;;;;4994257;28;20455;-73
2023/09/01 00:04:32;;;;;;;;;;;18.40;99.90;;;;;;5000136;28;19913;-74
2023/09/01 00:06:58;;;;;;;;;;;18.40;99.90;;;;;;5014691;28;19917;-73
2023/09/01 00:09:24;;;;;;;;;;;18.40;99.90;;;;;;5002096;28;20406;-73
2023/09/01 00:11:51;;;;;;;;;;;18.40;99.90;;;;;;4994629;28;20274;-73
2023/09/01 00:14:16;;;;;;;;;;;18.30;99.90;;;;;;4997704;28;19921;-73
2023/09/01 00:16:42;;;;;;;;;;;18.40;99.90;;;;;;5018409;28;20335;-73
2023/09/01 00:19:07;;;;;;;;;;;18.40;99.90;;;;;;5000013;28;20063;-73
2023/09/01 00:21:33;;;;;;;;;;;18.40;99.90;;;;;;5011035;28;19964;-74
2023/09/01 00:24:02;;;;;;;;;;;18.40;99.90;;;;;;5002010;28;20610;-73
2023/09/01 00:26:29;;;;;;;;;;;18.40;99.90;;;;;;5003333;28;19905;-73
2023/09/01 00:28:54;;;;;;;;;;;18.40;99.90;;;;;;4994180;28;19945;-73
2023/09/01 00:31:20;;;;;;;;;;;18.30;99.90;;;;;;4998275;28;20011;-73
2023/09/01 00:33:46;;;;;;;;;;;18.40;99.90;;;;;;5000456;28;19920;-73
2023/09/01 00:36:12;;;;;;;;;;;18.30;99.90;;;;;;4998022;28;19905;-73
2023/09/01 00:38:37;;;;;;;;;;;18.30;99.90;;;;;;4997144;28;19909;-73
2023/09/01 00:41:03;;;;;;;;;;;18.30;99.90;;;;;;5001752;28;20457;-74
2023/09/01 00:43:28;;;;;;;;;;;18.30;99.90;;;;;;5002884;28;20006;-74
2023/09/01 00:45:54;;;;;;;;;;;18.30;99.90;;;;;;4995570;28;19939;-73
2023/09/01 00:48:21;;;;;;;;;;;18.40;99.90;;;;;;4997355;28;20420;-73
2023/09/01 00:50:47;;;;;;;;;;;18.40;99.90;;;;;;4998142;28;20047;-73
2023/09/01 00:53:13;;;;;;;;;;;18.40;99.90;;;;;;5000562;28;20400;-73
2023/09/01 00:55:39;;;;;;;;;;;18.30;99.90;;;;;;5001706;28;19910;-73
2023/09/01 00:58:05;;;;;;;;;;;18.30;99.90;;;;;;5003675;28;19941;-73
2023/09/01 01:00:32;;;;;;;;;;;18.30;99.90;;;;;;5001293;28;19952;-73
2023/09/01 01:03:05;;;;;;;;;;;18.30;99.90;;;;;;5005067;28;20019;-73
2023/09/01 01:05:38;;;;;;;;;;;18.30;99.90;;;;;;5001933;28;20003;-73
2023/09/01 01:08:05;;;;;;;;;;;18.20;99.90;;;;;;4997855;28;19960;-74
2023/09/01 01:10:51;;;;;;;;;;;18.30;99.90;;;;;;5003059;28;19921;-74
2023/09/01 01:13:18;;;;;;;;;;;18.20;99.90;;;;;;5002172;28;19924;-73
2023/09/01 01:15:44;;;;;;;;;;;18.20;99.90;;;;;;4997395;28;19906;-74
2023/09/01 01:18:11;;;;;;;;;;;18.20;99.90;;;;;;5016563;28;19954;-72
2023/09/01 01:20:52;;;;;;;;;;;18.20;99.90;;;;;;4997061;28;19939;-73
2023/09/01 01:23:19;;;;;;;;;;;18.20;99.90;;;;;;5015947;28;20001;-72
2023/09/01 01:25:45;;;;;;;;;;;18.10;99.90;;;;;;5014982;28;19909;-73
2023/09/01 01:28:10;;;;;;;;;;;18.10;99.90;;;;;;5006249;28;19982;-74
2023/09/01 01:30:36;;;;;;;;;;;18.10;99.90;;;;;;4997262;28;19916;-73
2023/09/01 01:33:02;;;;;;;;;;;18.10;99.90;;;;;;5003026;28;19920;-73
2023/09/01 01:35:32;;;;;;;;;;;18.10;99.90;;;;;;5000824;28;19909;-74
2023/09/01 01:38:14;;;;;;;;;;;18.10;99.90;;;;;;5001890;28;19941;-73
2023/09/01 01:40:42;;;;;;;;;;;18.00;99.90;;;;;;4999083;28;19952;-72
2023/09/01 01:43:10;;;;;;;;;;;18.00;99.90;;;;;;5000581;28;19913;-73
2023/09/01 01:45:38;;;;;;;;;;;18.00;99.90;;;;;;5000346;28;20634;-73
2023/09/01 01:48:04;;;;;;;;;;;18.00;99.90;;;;;;4997301;28;19921;-74
2023/09/01 01:50:32;;;;;;;;;;;18.00;99.90;;;;;;5002631;28;19917;-73
2023/09/01 01:52:58;;;;;;;;;;;18.00;99.90;;;;;;5015220;28;19905;-73
2023/09/01 01:55:23;;;;;;;;;;;18.00;99.90;;;;;;5003895;28;19917;-73
2023/09/01 01:57:49;;;;;;;;;;;18.00;99.90;;;;;;5002581;28;19909;-73
2023/09/01 02:00:15;;;;;;;;;;;17.90;99.90;;;;;;5002507;28;20660;-73
2023/09/01 02:02:41;;;;;;;;;;;18.00;99.90;;;;;;4997398;28;20493;-72
2023/09/01 02:05:07;;;;;;;;;;;17.90;99.90;;;;;;5002890;28;19964;-72
2023/09/01 02:07:33;;;;;;;;;;;17.90;99.90;;;;;;5000519;28;20438;-73
2023/09/01 02:09:58;;;;;;;;;;;17.90;99.90;;;;;;4999020;28;19905;-73
2023/09/01 02:12:24;;;;;;;;;;;17.90;99.90;;;;;;5020188;28;19913;-73
2023/09/01 02:14:50;;;;;;;;;;;17.90;99.90;;;;;;5002853;28;19906;-73
2023/09/01 02:17:15;;;;;;;;;;;17.90;99.90;;;;;;5001357;28;20437;-73
2023/09/01 02:19:41;;;;;;;;;;;17.80;99.90;;;;;;5003253;28;20386;-73
2023/09/01 02:22:06;;;;;;;;;;;17.90;99.90;;;;;;5004783;28;19909;-73
2023/09/01 02:24:32;;;;;;;;;;;17.80;99.90;;;;;;5006676;28;19996;-74
2023/09/01 02:26:58;;;;;;;;;;;17.90;99.90;;;;;;4998165;28;20392;-73
2023/09/01 02:29:23;;;;;;;;;;;17.80;99.90;;;;;;5002994;28;19909;-73
2023/09/01 02:31:49;;;;;;;;;;;17.80;99.90;;;;;;4999599;28;19924;-73
2023/09/01 02:34:15;;;;;;;;;;;17.80;99.90;;;;;;5001069;28;20363;-73
2023/09/01 02:36:40;;;;;;;;;;;17.90;99.90;;;;;;4998810;28;19909;-73
2023/09/01 02:39:06;;;;;;;;;;;17.90;99.90;;;;;;5001073;28;19963;-74
2023/09/01 02:41:32;;;;;;;;;;;17.80;99.90;;;;;;4999629;28;20368;-73
2023/09/01 02:43:57;;;;;;;;;;;17.70;99.90;;;;;;4998529;28;19949;-73
2023/09/01 02:46:23;;;;;;;;;;;17.70;99.90;;;;;;4997133;28;20289;-73
2023/09/01 02:48:49;;;;;;;;;;;17.70;99.90;;;;;;4999904;28;19909;-73
2023/09/01 02:51:15;;;;;;;;;;;17.60;99.90;;;;;;5001713;28;20157;-73
2023/09/01 02:53:41;;;;;;;;;;;17.60;99.90;;;;;;5001101;28;19909;-73
2023/09/01 02:56:06;;;;;;;;;;;17.50;99.90;;;;;;5005868;28;20322;-73
2023/09/01 02:58:32;;;;;;;;;;;17.50;99.90;;;;;;4999359;28;19920;-74
2023/09/01 03:00:58;;;;;;;;;;;17.40;99.90;;;;;;4997554;28;19952;-73
2023/09/01 03:03:24;;;;;;;;;;;17.50;99.90;;;;;;5002720;28;20256;-73
2023/09/01 03:05:50;;;;;;;;;;;17.50;99.90;;;;;;4998511;28;19909;-72
2023/09/01 03:08:20;;;;;;;;;;;17.50;99.90;;;;;;5003209;28;19913;-73
2023/09/01 03:10:46;;;;;;;;;;;17.50;99.90;;;;;;4999512;28;20578;-73
2023/09/01 03:13:12;;;;;;;;;;;17.40;99.90;;;;;;5006208;28;19913;-74
2023/09/01 03:15:37;;;;;;;;;;;17.30;99.90;;;;;;5001367;28;19905;-73
2023/09/01 03:18:03;;;;;;;;;;;17.30;99.90;;;;;;5021169;28;20531;-73
2023/09/01 03:20:29;;;;;;;;;;;17.30;99.90;;;;;;4998768;28;19910;-73
2023/09/01 03:22:54;;;;;;;;;;;17.30;99.90;;;;;;5003572;28;20473;-73
2023/09/01 03:25:20;;;;;;;;;;;17.40;99.90;;;;;;4998612;28;19909;-73
2023/09/01 03:27:45;;;;;;;;;;;17.30;99.90;;;;;;5002625;28;19984;-73
2023/09/01 03:30:11;;;;;;;;;;;17.30;99.90;;;;;;5001075;28;20410;-74
2023/09/01 03:32:38;;;;;;;;;;;17.20;99.90;;;;;;4998002;28;19949;-72
2023/09/01 03:35:04;;;;;;;;;;;17.20;99.90;;;;;;5013165;28;19972;-73
2023/09/01 03:37:30;;;;;;;;;;;17.20;99.90;;;;;;4999842;28;19992;-73
2023/09/01 03:39:56;;;;;;;;;;;17.10;99.90;;;;;;4999646;28;20020;-73
2023/09/01 03:42:21;;;;;;;;;;;17.00;99.90;;;;;;5000179;28;19910;-73
2023/09/01 03:44:48;;;;;;;;;;;17.10;99.90;;;;;;5015271;28;20652;-73
2023/09/01 03:47:14;;;;;;;;;;;17.10;99.90;;;;;;5000436;28;19906;-73
2023/09/01 03:49:40;;;;;;;;;;;17.10;99.90;;;;;;5014418;28;20359;-73
2023/09/01 03:52:06;;;;;;;;;;;17.10;99.90;;;;;;4998058;28;19909;-72
2023/09/01 03:54:31;;;;;;;;;;;17.10;99.90;;;;;;4995961;28;19924;-72
2023/09/01 03:56:57;;;;;;;;;;;17.10;99.90;;;;;;5015304;28;19936;-74
2023/09/01 03:59:22;;;;;;;;;;;17.10;99.90;;;;;;5000056;28;19909;-73
2023/09/01 04:01:48;;;;;;;;;;;17.10;99.90;;;;;;5015638;28;19913;-73
2023/09/01 04:04:14;;;;;;;;;;;17.20;99.90;;;;;;4999644;28;19906;-73
2023/09/01 04:06:40;;;;;;;;;;;17.20;99.90;;;;;;4999363;28;20338;-73
2023/09/01 04:09:06;;;;;;;;;;;17.10;99.90;;;;;;4997794;28;20549;-72
2023/09/01 04:11:32;;;;;;;;;;;17.10;99.90;;;;;;5001530;28;20345;-73
2023/09/01 04:13:57;;;;;;;;;;;17.10;99.90;;;;;;4996034;28;19909;-73
2023/09/01 04:16:23;;;;;;;;;;;17.20;99.90;;;;;;4999808;28;19912;-73
2023/09/01 04:18:50;;;;;;;;;;;17.20;99.90;;;;;;4995028;28;19920;-74
2023/09/01 04:21:16;;;;;;;;;;;17.20;99.90;;;;;;4999912;28;19994;-73
2023/09/01 04:23:41;;;;;;;;;;;17.30;99.90;;;;;;4996677;28;20026;-70
2023/09/01 04:26:08;;;;;;;;;;;17.40;99.90;;;;;;4996576;28;19906;-69
2023/09/01 04:28:34;;;;;;;;;;;17.40;99.90;;;;;;4999460;28;19913;-70
2023/09/01 04:30:59;;;;;;;;;;;17.40;99.90;;;;;;4997881;28;20829;-70
2023/09/01 04:33:26;;;;;;;;;;;17.40;99.90;;;;;;5001158;28;20345;-71
2023/09/01 04:35:59;;;;;;;;;;;17.30;99.90;;;;;;5000538;28;20452;-69
2023/09/01 04:38:24;;;;;;;;;;;17.40;99.90;;;;;;4999769;28;20335;-69
2023/09/01 04:40:57;;;;;;;;;;;17.40;99.90;;;;;;4999667;28;19905;-70
2023/09/01 04:43:26;;;;;;;;;;;17.40;99.90;;;;;;5000417;28;19906;-69
2023/09/01 04:45:52;;;;;;;;;;;17.50;99.90;;;;;;4997862;28;19919;-69
2023/09/01 04:48:18;;;;;;;;;;;17.50;99.90;;;;;;5001056;28;19914;-69
2023/09/01 04:50:44;;;;;;;;;;;17.50;99.90;;;;;;5001811;28;19913;-69
2023/09/01 04:53:10;;;;;;;;;;;17.60;99.90;;;;;;5000335;28;19905;-69
2023/09/01 04:55:36;;;;;;;;;;;17.60;99.90;;;;;;4999047;28;19913;-67
2023/09/01 04:58:01;;;;;;;;;;;17.60;99.90;;;;;;4996235;28;21703;-67
2023/09/01 05:00:27;;;;;;;;;;;17.50;99.90;;;;;;5007567;28;19959;-63
2023/09/01 05:02:52;;;;;;;;;;;17.50;99.90;;;;;;4994473;28;19941;-64
2023/09/01 05:05:18;;;;;;;;;;;17.50;99.90;;;;;;5013679;28;20777;-65
2023/09/01 05:07:43;;;;;;;;;;;17.50;99.90;;;;;;4999262;28;19924;-67
2023/09/01 05:10:09;;;;;;;;;;;17.50;99.90;;;;;;4999742;28;19968;-67
2023/09/01 05:12:35;;;;;;;;;;;17.50;99.90;;;;;;4999556;28;19909;-67
2023/09/01 05:15:01;;;;;;;;;;;17.50;99.90;;;;;;5000147;28;21473;-66
2023/09/01 05:17:28;;;;;;;;;;;17.60;99.90;;;;;;5011438;28;19928;-66
2023/09/01 05:19:53;;;;;;;;;;;17.60;99.90;;;;;;4998736;28;20256;-65
2023/09/01 05:22:19;;;;;;;;;;;17.60;99.90;;;;;;5010088;28;19915;-66
2023/09/01 05:24:47;;;;;;;;;;;17.60;99.90;;;;;;5000940;28;19909;-66
2023/09/01 05:27:13;;;;;;;;;;;17.50;99.90;;;;;;5002904;28;19909;-68
2023/09/01 05:29:38;;;;;;;;;;;17.50;99.90;;;;;;4997859;28;19963;-66
2023/09/01 05:32:04;;;;;;;;;;;17.50;99.90;;;;;;5014887;28;20365;-68
2023/09/01 05:34:29;;;;;;;;;;;17.50;99.90;;;;;;5013242;28;19909;-66
2023/09/01 05:36:57;;;;;;;;;;;17.70;99.90;;;;;;5010579;28;19961;-66
2023/09/01 05:39:22;;;;;;;;;;;17.80;99.90;;;;;;5014688;28;19909;-66
2023/09/01 05:41:48;;;;;;;;;;;17.70;99.90;;;;;;4999748;28;19997;-66
2023/09/01 05:44:13;;;;;;;;;;;17.60;99.90;;;;;;4997388;28;20562;-66
2023/09/01 05:46:39;;;;;;;;;;;17.60;99.90;;;;;;4997733;28;19967;-66
2023/09/01 05:49:04;;;;;;;;;;;17.60;99.90;;;;;;5015162;28;19916;-66
2023/09/01 05:51:30;;;;;;;;;;;17.60;99.90;;;;;;5014368;28;19963;-68
2023/09/01 05:53:55;;;;;;;;;;;17.60;99.90;;;;;;4996002;28;20268;-67
2023/09/01 05:56:21;;;;;;;;;;;17.60;99.90;;;;;;5013034;28;20357;-67
2023/09/01 05:58:47;;;;;;;;;;;17.60;99.90;;;;;;4998077;28;21416;-66
2023/09/01 06:01:13;;;;;;;;;;;17.60;99.90;;;;;;5001052;28;19913;-66
2023/09/01 06:03:39;;;;;;;;;;;17.70;99.90;;;;;;5012541;28;19920;-67
2023/09/01 06:06:06;;;;;;;;;;;17.80;99.90;;;;;;4997751;28;19913;-67
2023/09/01 06:08:32;;;;;;;;;;;18.00;99.90;;;;;;4995629;28;21038;-67
2023/09/01 06:11:04;;;;;;;;;;;18.00;99.90;;;;;;4996545;28;20027;-68
2023/09/01 06:13:30;;;;;;;;;;;17.90;99.90;;;;;;5014083;28;19913;-66
2023/09/01 06:15:56;;;;;;;;;;;17.90;99.90;;;;;;4999241;28;19905;-67
2023/09/01 06:18:22;;;;;;;;;;;17.80;99.90;;;;;;4997610;28;19963;-67
2023/09/01 06:20:47;;;;;;;;;;;18.00;99.90;;;;;;5012155;28;20004;-66
2023/09/01 06:23:13;;;;;;;;;;;18.10;99.90;;;;;;4998794;28;20273;-67
2023/09/01 06:25:38;;;;;;;;;;;18.20;99.90;;;;;;4996209;28;20284;-66
2023/09/01 06:28:04;;;;;;;;;;;18.40;99.90;;;;;;5014289;28;19909;-67
2023/09/01 06:30:29;;;;;;;;;;;18.30;99.90;;;;;;5003261;28;20310;-65
2023/09/01 06:32:55;;;;;;;;;;;18.20;99.90;;;;;;4998697;28;19979;-66
2023/09/01 06:35:20;;;;;;;;;;;18.20;99.90;;;;;;4992947;28;19909;-65
2023/09/01 06:37:46;;;;;;;;;;;18.20;99.90;;;;;;4997590;28;19913;-64
2023/09/01 06:40:12;;;;;;;;;;;18.30;99.90;;;;;;5012340;28;20331;-68
2023/09/01 06:42:37;;;;;;;;;;;18.30;99.90;;;;;;5016437;28;19960;-65
2023/09/01 06:45:03;;;;;;;;;;;18.30;99.90;;;;;;4998239;28;19944;-66
2023/09/01 06:47:29;;;;;;;;;;;18.40;99.90;;;;;;4995200;28;19913;-67
2023/09/01 06:49:54;;;;;;;;;;;18.50;99.90;;;;;;4998046;28;19956;-65
2023/09/01 06:52:20;;;;;;;;;;;18.70;99.90;;;;;;4991531;28;19924;-65
2023/09/01 06:54:46;;;;;;;;;;;18.90;99.90;;;;;;4997955;28;21354;-66
2023/09/01 06:57:11;;;;;;;;;;;19.00;99.90;;;;;;4998797;28;19976;-67
2023/09/01 06:59:37;;;;;;;;;;;19.10;99.90;;;;;;4997208;28;20004;-66
2023/09/01 07:02:03;;;;;;;;;;;19.00;99.90;;;;;;4995982;28;20012;-66
2023/09/01 07:04:28;;;;;;;;;;;19.00;99.90;;;;;;4997681;28;20297;-65
2023/09/01 07:06:54;;;;;;;;;;;19.00;99.90;;;;;;4998822;28;19967;-66
2023/09/01 07:09:19;;;;;;;;;;;19.00;99.90;;;;;;4998092;28;19910;-67
2023/09/01 07:11:45;;;;;;;;;;;18.90;99.90;;;;;;4999032;28;19913;-66
2023/09/01 07:14:11;;;;;;;;;;;18.80;99.90;;;;;;4997994;28;20288;-66
2023/09/01 07:16:36;;;;;;;;;;;18.70;99.90;;;;;;4997054;28;19988;-66
2023/09/01 07:19:02;;;;;;;;;;;18.70;99.90;;;;;;4996420;28;19913;-69
2023/09/01 07:21:27;;;;;;;;;;;18.70;99.90;;;;;;5011340;28;20408;-66
2023/09/01 07:23:53;;;;;;;;;;;18.80;99.90;;;;;;4988776;28;20006;-66
2023/09/01 07:26:18;;;;;;;;;;;18.90;99.90;;;;;;5000726;28;20650;-66
2023/09/01 07:28:44;;;;;;;;;;;19.00;99.90;;;;;;5013549;28;19909;-66
2023/09/01 07:31:12;;;;;;;;;;;19.10;99.90;;;;;;4998684;28;19919;-67
2023/09/01 07:33:41;;;;;;;;;;;19.20;99.90;;;;;;4994917;28;20320;-65
2023/09/01 07:36:10;;;;;;;;;;;19.30;99.90;;;;;;4996831;28;19913;-65
2023/09/01 07:38:36;;;;;;;;;;;19.40;99.90;;;;;;4991854;28;20467;-67
2023/09/01 07:41:03;;;;;;;;;;;19.40;99.90;;;;;;4997854;28;20028;-67
2023/09/01 07:43:29;;;;;;;;;;;19.50;99.90;;;;;;4995295;28;20367;-68
2023/09/01 07:45:54;;;;;;;;;;;19.50;99.90;;;;;;4996966;28;19905;-67
2023/09/01 07:48:20;;;;;;;;;;;19.50;99.90;;;;;;4990635;28;19906;-68
2023/09/01 07:50:46;;;;;;;;;;;19.60;99.90;;;;;;4994903;28;19913;-67
2023/09/01 07:53:11;;;;;;;;;;;19.70;99.90;;;;;;5001138;28;19909;-69
2023/09/01 07:55:37;;;;;;;;;;;19.50;99.90;;;;;;4993572;28;19910;-68
2023/09/01 07:58:03;;;;;;;;;;;19.40;99.90;;;;;;4997230;28;19920;-66
2023/09/01 08:00:28;;;;;;;;;;;19.50;99.90;;;;;;4997924;28;20364;-64
2023/09/01 08:02:55;;;;;;;;;;;19.70;99.90;;;;;;4997354;28;19905;-68
2023/09/01 08:05:21;;;;;;;;;;;19.80;99.90;;;;;;4998487;28;20386;-67
2023/09/01 08:07:49;;;;;;;;;;;19.80;99.90;;;;;;4996631;28;20016;-69
2023/09/01 08:10:15;;;;;;;;;;;19.80;99.90;;;;;;5001142;28;20110;-68
2023/09/01 08:12:41;;;;;;;;;;;20.00;99.90;;;;;;5004828;28;20462;-69
2023/09/01 08:15:08;;;;;;;;;;;20.10;99.90;;;;;;5001085;28;19996;-67
2023/09/01 08:17:34;;;;;;;;;;;20.30;99.90;;;;;;4999271;28;20051;-65
2023/09/01 08:20:00;;;;;;;;;;;20.70;99.90;;;;;;4995441;28;20453;-66
2023/09/01 08:22:25;;;;;;;;;;;21.10;99.90;;;;;;5017477;28;20220;-69
2023/09/01 08:24:51;;;;;;;;;;;21.20;99.90;;;;;;5000840;28;19918;-68
2023/09/01 08:27:16;;;;;;;;;;;21.60;99.90;;;;;;5001929;28;19914;-68
2023/09/01 08:29:42;;;;;;;;;;;21.80;99.90;;;;;;4998622;28;20315;-68
2023/09/01 08:32:09;;;;;;;;;;;21.80;99.90;;;;;;5003214;28;19916;-67
2023/09/01 08:34:35;;;;;;;;;;;21.40;99.90;;;;;;4995190;28;20309;-71
2023/09/01 08:37:01;;;;;;;;;;;21.40;99.90;;;;;;5005854;28;19920;-72
2023/09/01 08:39:26;;;;;;;;;;;21.40;99.90;;;;;;5004108;28;20253;-75
2023/09/01 08:41:52;;;;;;;;;;;21.60;99.90;;;;;;5016684;28;19936;-77
2023/09/01 08:44:23;;;;;;;;;;;21.70;99.90;;;;;;5017989;28;19919;-77
2023/09/01 08:46:53;;;;;;;;;;;21.50;99.90;;;;;;5019977;28;19917;-76
2023/09/01 08:49:19;;;;;;;;;;;21.50;99.90;;;;;;5008061;28;19911;-77
2023/09/01 08:51:46;;;;;;;;;;;21.60;99.90;;;;;;5006147;28;19916;-78
2023/09/01 08:54:12;;;;;;;;;;;21.50;99.90;;;;;;5023489;28;19909;-74
2023/09/01 08:56:38;;;;;;;;;;;21.50;99.90;;;;;;5008012;28;20617;-75
2023/09/01 08:59:03;;;;;;;;;;;21.70;99.90;;;;;;5010648;28;19952;-77
2023/09/01 09:01:30;;;;;;;;;;;21.70;99.90;;;;;;4998694;28;19905;-75
2023/09/01 09:03:56;;;;;;;;;;;21.80;99.90;;;;;;5003041;28;20379;-78
2023/09/01 09:06:32;;;;;;;;;;;21.80;99.90;;;;;;5002235;28;19920;-77
2023/09/01 09:09:13;;;;;;;;;;;22.00;99.70;;;;;;5000759;28;19909;-78
2023/09/01 09:11:39;;;;;;;;;;;22.20;99.10;;;;;;5013177;28;19917;-77
2023/09/01 09:14:06;;;;;;;;;;;22.30;99.10;;;;;;5003590;28;20516;-76
2023/09/01 09:16:31;;;;;;;;;;;22.20;99.20;;;;;;4996050;28;19923;-76
2023/09/01 09:18:57;;;;;;;;;;;22.30;99.10;;;;;;5003100;28;19960;-74
2023/09/01 09:21:27;;;;;;;;;;;22.30;98.90;;;;;;4998747;28;20375;-77
2023/09/01 09:23:56;;;;;;;;;;;22.40;99.00;;;;;;4999878;28;19913;-77
2023/09/01 09:26:25;;;;;;;;;;;22.60;98.70;;;;;;4999782;28;19936;-75
2023/09/01 09:28:51;;;;;;;;;;;22.70;98.30;;;;;;5004245;28;20009;-77
2023/09/01 09:31:16;;;;;;;;;;;22.70;98.70;;;;;;4993825;28;20641;-77
2023/09/01 09:33:43;;;;;;;;;;;23.10;98.10;;;;;;5015147;28;19906;-77
2023/09/01 09:36:08;;;;;;;;;;;23.70;97.30;;;;;;4997592;28;19916;-76
2023/09/01 09:38:41;;;;;;;;;;;24.70;96.30;;;;;;5000618;28;20326;-76
2023/09/01 09:41:07;;;;;;;;;;;25.70;94.80;;;;;;4998227;28;20424;-76
2023/09/01 09:43:46;;;;;;;;;;;26.40;94.10;;;;;;5000433;28;19917;-77
2023/09/01 09:46:12;;;;;;;;;;;26.60;93.10;;;;;;4998788;28;19905;-77
2023/09/01 09:48:41;;;;;;;;;;;26.90;92.50;;;;;;4993224;28;19912;-71
2023/09/01 09:51:10;;;;;;;;;;;27.10;91.80;;;;;;5002115;28;20360;-70
2023/09/01 09:53:36;;;;;;;;;;;27.20;91.00;;;;;;4998592;28;20016;-61
2023/09/01 09:56:30;;;;;;;;;;;27.50;90.40;;;;;;4994121;28;19914;-60
2023/09/01 09:58:57;;;;;;;;;;;28.60;87.90;;;;;;4993836;28;19999;-60
2023/09/01 10:01:24;;;;;;;;;;;30.90;84.10;;;;;;4998361;28;19944;-66
2023/09/01 10:03:49;;;;;;;;;;;32.80;77.80;;;;;;4997380;28;19917;-64
2023/09/01 10:06:16;;;;;;;;;;;34.40;73.50;;;;;;4997178;28;19985;-65
2023/09/01 10:08:42;;;;;;;;;;;35.20;68.70;;;;;;4998113;28;19979;-61
2023/09/01 10:11:09;;;;;;;;;;;34.00;68.30;;;;;;4996407;28;19909;-60
2023/09/01 10:13:36;;;;;;;;;;;33.20;68.60;;;;;;4999716;28;19916;-60
2023/09/01 10:16:02;;;;;;;;;;;32.70;68.90;;;;;;4997965;28;19909;-59
2023/09/01 10:18:29;;;;;;;;;;;32.40;69.70;;;;;;4996891;28;19916;-60
2023/09/01 10:20:54;;;;;;;;;;;32.00;70.20;;;;;;4996278;28;19909;-59
2023/09/01 10:23:20;;;;;;;;;;;31.80;70.10;;;;;;4997003;28;20261;-60
2023/09/01 10:26:09;;;;;;;;;;;31.10;70.80;;;;;;4994321;28;19943;-61
2023/09/01 10:28:51;;;;;;;;;;;31.60;71.70;;;;;;4998424;28;20357;-59
2023/09/01 10:31:17;;;;;;;;;;;34.00;68.90;;;;;;4998525;28;19993;-59
2023/09/01 10:33:43;;;;;;;;;;;35.90;66.30;;;;;;5003720;28;19964;-77
2023/09/01 10:36:12;;;;;;;;;;;37.10;64.40;;;;;;5019766;28;19917;-83
2023/09/01 10:38:40;;;;;;;;;;;38.10;62.10;;;;;;5000601;28;19909;-80
2023/09/01 10:41:06;;;;;;;;;;;37.10;61.20;;;;;;4999752;28;20773;-76
2023/09/01 10:43:35;;;;;;;;;;;35.30;62.40;;;;;;5016404;28;19913;-79
2023/09/01 10:46:16;;;;;;;;;;;33.90;63.80;;;;;;5017122;28;19905;-75
2023/09/01 10:48:51;;;;;;;;;;;32.40;65.90;;;;;;5014564;28;19941;-72
2023/09/01 10:51:17;;;;;;;;;;;31.10;67.10;;;;;;4995343;28;19917;-72
2023/09/01 10:53:43;;;;;;;;;;;30.20;69.50;;;;;;5000711;28;19975;-72
2023/09/01 10:56:09;;;;;;;;;;;29.30;70.60;;;;;;4992336;28;19909;-71
2023/09/01 10:58:44;;;;;;;;;;;28.50;72.40;;;;;;5013387;28;19917;-71
2023/09/01 11:01:27;;;;;;;;;;;28.10;73.40;;;;;;5010541;28;19910;-71
2023/09/01 11:03:53;;;;;;;;;;;27.60;74.40;;;;;;4995898;28;19914;-71
2023/09/01 11:06:20;;;;;;;;;;;27.40;75.90;;;;;;4998792;28;19948;-71
2023/09/01 11:08:59;;;;;;;;;;;27.40;76.60;;;;;;5014468;28;19997;-71
2023/09/01 11:11:25;;;;;;;;;;;27.40;76.90;;;;;;4998716;28;19913;-70
2023/09/01 11:14:09;;;;;;;;;;;27.50;77.10;;;;;;4996570;28;19910;-71
2023/09/01 11:16:34;;;;;;;;;;;27.50;76.90;;;;;;4993511;28;20260;-70
2023/09/01 11:19:02;;;;;;;;;;;27.80;77.50;;;;;;4998613;28;19930;-70
2023/09/01 11:21:28;;;;;;;;;;;28.00;77.60;;;;;;5000821;28;19910;-71
2023/09/01 11:23:57;;;;;;;;;;;28.20;77.50;;;;;;4995062;28;20232;-71
2023/09/01 11:26:23;;;;;;;;;;;28.20;76.90;;;;;;4999132;28;19905;-71
2023/09/01 11:28:48;;;;;;;;;;;28.00;77.40;;;;;;4996652;28;19968;-71
2023/09/01 11:31:14;;;;;;;;;;;28.10;77.70;;;;;;4996062;28;19916;-71
2023/09/01 11:33:42;;;;;;;;;;;28.10;77.40;;;;;;4997174;28;19912;-71
2023/09/01 11:36:10;;;;;;;;;;;28.00;77.70;;;;;;4993678;28;19916;-71
2023/09/01 11:38:36;;;;;;;;;;;28.20;77.80;;;;;;4996908;28;19906;-71
2023/09/01 11:41:03;;;;;;;;;;;28.10;78.00;;;;;;4990862;28;19923;-70
2023/09/01 11:43:29;;;;;;;;;;;28.00;78.30;;;;;;5013525;28;19905;-71
2023/09/01 11:45:54;;;;;;;;;;;27.80;78.20;;;;;;5001725;28;19968;-71
2023/09/01 11:48:27;;;;;;;;;;;27.50;79.40;;;;;;4994023;28;19905;-71
2023/09/01 11:50:54;;;;;;;;;;;27.30;80.60;;;;;;5010961;28;20369;-71
2023/09/01 11:53:23;;;;;;;;;;;27.20;80.70;;;;;;4995796;28;20056;-72
2023/09/01 11:55:48;;;;;;;;;;;27.20;81.40;;;;;;4995620;28;19960;-71
2023/09/01 11:58:15;;;;;;;;;;;27.40;80.80;;;;;;4996189;28;19968;-71
2023/09/01 12:00:41;;;;;;;;;;;27.60;80.70;;;;;;4998488;28;19988;-71
2023/09/01 12:03:06;;;;;;;;;;;27.50;80.60;;;;;;4994034;28;20008;-71
2023/09/01 12:05:36;;;;;;;;;;;27.50;80.90;;;;;;4997799;28;19940;-72
2023/09/01 12:08:03;;;;;;;;;;;27.70;81.00;;;;;;4997345;28;20038;-71
2023/09/01 12:10:29;;;;;;;;;;;27.70;81.00;;;;;;4995752;28;19910;-71
2023/09/01 12:13:07;;;;;;;;;;;27.60;80.60;;;;;;4998394;28;20284;-71
2023/09/01 12:15:34;;;;;;;;;;;27.40;81.20;;;;;;4997183;28;20580;-71
2023/09/01 12:18:26;;;;;;;;;;;27.20;80.80;;;;;;4994563;28;19921;-70
2023/09/01 12:20:52;;;;;;;;;;;27.50;81.20;;;;;;4996332;28;19968;-73
2023/09/01 12:23:28;;;;;;;;;;;27.40;82.40;;;;;;4998433;28;19917;-73
2023/09/01 12:25:55;;;;;;;;;;;27.10;82.30;;;;;;5010957;28;20633;-71
2023/09/01 12:28:21;;;;;;;;;;;27.00;82.40;;;;;;4993966;28;19905;-72
2023/09/01 12:30:46;;;;;;;;;;;26.80;81.60;;;;;;4998912;28;20435;-71
2023/09/01 12:33:12;;;;;;;;;;;26.70;83.00;;;;;;4998473;28;19945;-72
2023/09/01 12:35:39;;;;;;;;;;;26.70;83.30;;;;;;4996830;28;20265;-71
2023/09/01 12:38:04;;;;;;;;;;;26.80;82.80;;;;;;4998556;28;20540;-72
2023/09/01 12:40:31;;;;;;;;;;;26.70;83.40;;;;;;4998917;28;19967;-72
2023/09/01 12:42:57;;;;;;;;;;;26.50;83.60;;;;;;4995465;28;19915;-73
2023/09/01 12:45:22;;;;;;;;;;;26.50;84.00;;;;;;4997567;28;20279;-72
2023/09/01 12:47:48;;;;;;;;;;;26.70;83.90;;;;;;4999400;28;20298;-72
2023/09/01 12:50:13;;;;;;;;;;;27.00;83.10;;;;;;5015449;28;20020;-71
2023/09/01 12:52:39;;;;;;;;;;;27.20;82.70;;;;;;5000414;28;19983;-71
2023/09/01 12:55:05;;;;;;;;;;;27.40;82.90;;;;;;5000415;28;19909;-72
2023/09/01 12:57:31;;;;;;;;;;;27.60;82.50;;;;;;4997776;28;19913;-71
2023/09/01 12:59:57;;;;;;;;;;;27.70;82.00;;;;;;5000233;28;20327;-72
2023/09/01 13:02:23;;;;;;;;;;;27.70;82.00;;;;;;4996298;28;19905;-71
2023/09/01 13:04:49;;;;;;;;;;;27.60;80.80;;;;;;5014716;28;20280;-72
2023/09/01 13:07:16;;;;;;;;;;;27.50;82.50;;;;;;4999329;28;19917;-71
2023/09/01 13:09:42;;;;;;;;;;;27.70;82.00;;;;;;5000348;28;19909;-71
2023/09/01 13:12:08;;;;;;;;;;;27.70;81.00;;;;;;5001688;28;20014;-71
2023/09/01 13:14:34;;;;;;;;;;;27.80;81.20;;;;;;5001746;28;19960;-71
2023/09/01 13:17:00;;;;;;;;;;;27.80;81.10;;;;;;4999183;28;20350;-70
2023/09/01 13:19:26;;;;;;;;;;;27.80;81.10;;;;;;4996041;28;20411;-63
2023/09/01 13:21:52;;;;;;;;;;;27.90;80.10;;;;;;5016826;28;19952;-63
2023/09/01 13:24:18;;;;;;;;;;;28.00;80.50;;;;;;4998479;28;20234;-63
2023/09/01 13:26:44;;;;;;;;;;;28.10;80.00;;;;;;4998766;28;19909;-64
2023/09/01 13:29:10;;;;;;;;;;;28.10;81.00;;;;;;4999148;28;19914;-63
2023/09/01 13:31:36;;;;;;;;;;;28.20;80.20;;;;;;5008835;28;20040;-64
2023/09/01 13:34:02;;;;;;;;;;;28.00;79.50;;;;;;4997787;28;21438;-63
2023/09/01 13:36:28;;;;;;;;;;;27.90;80.30;;;;;;5000290;28;19909;-64
2023/09/01 13:38:54;;;;;;;;;;;27.90;79.80;;;;;;4994662;28;19905;-64
2023/09/01 13:41:20;;;;;;;;;;;27.90;80.20;;;;;;5014566;28;19913;-63
2023/09/01 13:43:46;;;;;;;;;;;28.20;80.50;;;;;;4997519;28;19927;-63
2023/09/01 13:46:18;;;;;;;;;;;28.30;80.10;;;;;;4999131;28;19988;-64
2023/09/01 13:48:45;;;;;;;;;;;28.50;79.30;;;;;;4998993;28;19909;-63
2023/09/01 13:51:11;;;;;;;;;;;28.50;78.20;;;;;;4998192;28;19913;-65
2023/09/01 13:53:37;;;;;;;;;;;28.50;79.40;;;;;;4992507;28;20383;-63
2023/09/01 13:56:03;;;;;;;;;;;28.50;79.10;;;;;;4998499;28;20330;-65
2023/09/01 13:58:29;;;;;;;;;;;28.50;78.20;;;;;;4999455;28;19912;-66
2023/09/01 14:00:55;;;;;;;;;;;28.40;78.00;;;;;;4993753;28;19905;-63
2023/09/01 14:03:21;;;;;;;;;;;28.30;77.40;;;;;;4999150;28;20265;-64
2023/09/01 14:05:47;;;;;;;;;;;28.00;78.90;;;;;;4998848;28;19921;-63
2023/09/01 14:08:13;;;;;;;;;;;27.90;78.20;;;;;;4997579;28;19917;-64
2023/09/01 14:10:40;;;;;;;;;;;27.90;78.60;;;;;;4999712;28;20569;-63
2023/09/01 14:13:06;;;;;;;;;;;27.80;78.10;;;;;;4997966;28;19916;-63
2023/09/01 14:15:32;;;;;;;;;;;27.50;77.80;;;;;;4993329;28;19917;-64